sensor_id;sensor_type;location;lat;lon;timestamp;pressure;altitude;pressure_sealevel;temperature;humidity
32109;BME280;18624;50.042;8.436;2022-08-30T00:00:34;100649.94;;;19.18;44.96
32109;BME280;18624;50.042;8.436;2022-08-30T00:03:20;100705.06;;;19.40;44.93
32109;BME280;18624;50.042;8.436;2022-08-30T00:05:47;100704.69;;;19.47;45.27
32109;BME280;18624;50.042;8.436;2022-08-30T00:08:14;100727.41;;;19.61;45.12
32109;BME280;18624;50.042;8.436;2022-08-30T00:10:41;100651.56;;;19.10;45.36
32109;BME280;18624;50.042;8.436;2022-08-30T00:13:08;100682.31;;;19.21;45.57
32109;BME280;18624;50.042;8.436;2022-08-30T00:15:38;100679.25;;;19.19;45.44
32109;BME280;18624;50.042;8.436;2022-08-30T00:18:07;100725.75;;;19.54;45.57
32109;BME280;18624;50.042;8.436;2022-08-30T00:20:34;100696.84;;;19.31;45.53
32109;BME280;18624;50.042;8.436;2022-08-30T00:23:03;100590.78;;;18.53;45.59
32109;BME280;18624;50.042;8.436;2022-08-30T00:25:30;100470.78;;;17.60;46.06
32109;BME280;18624;50.042;8.436;2022-08-30T00:27:56;100693.06;;;18.99;46.10
32109;BME280;18624;50.042;8.436;2022-08-30T00:30:23;100650.63;;;18.84;46.09
32109;BME280;18624;50.042;8.436;2022-08-30T00:32:50;100651.13;;;18.82;46.15
32109;BME280;18624;50.042;8.436;2022-08-30T00:35:17;100723.19;;;19.36;46.05
32109;BME280;18624;50.042;8.436;2022-08-30T00:37:46;100725.22;;;19.35;46.04
32109;BME280;18624;50.042;8.436;2022-08-30T00:40:13;100639.44;;;18.78;46.03
32109;BME280;18624;50.042;8.436;2022-08-30T00:42:43;100537.56;;;18.10;46.16
32109;BME280;18624;50.042;8.436;2022-08-30T00:45:26;100710.59;;;19.20;46.32
32109;BME280;18624;50.042;8.436;2022-08-30T00:47:53;100557.75;;;18.26;45.97
32109;BME280;18624;50.042;8.436;2022-08-30T00:50:23;100726.66;;;19.31;46.19
32109;BME280;18624;50.042;8.436;2022-08-30T00:52:53;100727.91;;;19.30;46.36
32109;BME280;18624;50.042;8.436;2022-08-30T00:55:21;100537.91;;;18.03;46.34
32109;BME280;18624;50.042;8.436;2022-08-30T00:57:51;100678.31;;;18.93;46.48
32109;BME280;18624;50.042;8.436;2022-08-30T01:00:19;100734.41;;;19.27;46.49
32109;BME280;18624;50.042;8.436;2022-08-30T01:02:47;100680.25;;;18.87;46.66
32109;BME280;18624;50.042;8.436;2022-08-30T01:05:17;100697.19;;;18.89;46.79
32109;BME280;18624;50.042;8.436;2022-08-30T01:07:44;100616.13;;;18.46;46.98
32109;BME280;18624;50.042;8.436;2022-08-30T01:10:12;100577.94;;;18.26;47.11
32109;BME280;18624;50.042;8.436;2022-08-30T01:12:40;100555.81;;;18.17;46.96
32109;BME280;18624;50.042;8.436;2022-08-30T01:15:09;100733.47;;;19.30;46.95
32109;BME280;18624;50.042;8.436;2022-08-30T01:17:37;100609.38;;;18.23;46.75
32109;BME280;18624;50.042;8.436;2022-08-30T01:20:12;100481.44;;;17.38;47.13
32109;BME280;18624;50.042;8.436;2022-08-30T01:25:18;100667.63;;;18.62;47.31
32109;BME280;18624;50.042;8.436;2022-08-30T01:27:51;100703.22;;;18.87;47.83
32109;BME280;18624;50.042;8.436;2022-08-30T01:30:18;100697.53;;;18.82;47.90
32109;BME280;18624;50.042;8.436;2022-08-30T01:32:46;100686.06;;;18.74;47.97
32109;BME280;18624;50.042;8.436;2022-08-30T01:35:15;100594.56;;;18.11;47.85
32109;BME280;18624;50.042;8.436;2022-08-30T01:37:43;100496.59;;;17.52;48.22
32109;BME280;18624;50.042;8.436;2022-08-30T01:40:12;100721.97;;;19.07;47.37
32109;BME280;18624;50.042;8.436;2022-08-30T01:42:39;100466.00;;;17.22;47.63
32109;BME280;18624;50.042;8.436;2022-08-30T01:45:07;100724.84;;;18.98;47.66
32109;BME280;18624;50.042;8.436;2022-08-30T01:47:34;100679.50;;;18.62;47.66
32109;BME280;18624;50.042;8.436;2022-08-30T01:50:01;100740.34;;;19.05;47.57
32109;BME280;18624;50.042;8.436;2022-08-30T01:52:27;100646.28;;;18.53;47.35
32109;BME280;18624;50.042;8.436;2022-08-30T01:54:59;100722.47;;;19.06;47.37
32109;BME280;18624;50.042;8.436;2022-08-30T01:57:25;100630.97;;;18.43;47.51
32109;BME280;18624;50.042;8.436;2022-08-30T01:59:53;100475.19;;;17.28;47.56
32109;BME280;18624;50.042;8.436;2022-08-30T02:02:22;100727.72;;;19.04;47.25
32109;BME280;18624;50.042;8.436;2022-08-30T02:04:51;100732.50;;;19.03;47.66
32109;BME280;18624;50.042;8.436;2022-08-30T02:07:20;100726.09;;;18.97;47.86
32109;BME280;18624;50.042;8.436;2022-08-30T02:09:47;100616.94;;;18.22;47.93
32109;BME280;18624;50.042;8.436;2022-08-30T02:12:14;100714.03;;;18.85;48.07
32109;BME280;18624;50.042;8.436;2022-08-30T02:14:40;100514.50;;;17.41;48.00
32109;BME280;18624;50.042;8.436;2022-08-30T02:17:09;100643.78;;;18.40;48.04
32109;BME280;18624;50.042;8.436;2022-08-30T02:19:35;100636.69;;;18.25;48.10
32109;BME280;18624;50.042;8.436;2022-08-30T02:22:02;100669.56;;;18.56;48.11
32109;BME280;18624;50.042;8.436;2022-08-30T02:24:28;100722.25;;;18.80;48.32
32109;BME280;18624;50.042;8.436;2022-08-30T02:26:55;100640.50;;;18.27;48.02
32109;BME280;18624;50.042;8.436;2022-08-30T02:29:22;100653.44;;;18.45;48.52
32109;BME280;18624;50.042;8.436;2022-08-30T02:31:49;100700.53;;;18.78;48.44
32109;BME280;18624;50.042;8.436;2022-08-30T02:34:17;100728.97;;;18.88;48.85
32109;BME280;18624;50.042;8.436;2022-08-30T02:36:44;100672.78;;;18.54;49.01
32109;BME280;18624;50.042;8.436;2022-08-30T02:39:12;100726.00;;;18.91;48.48
32109;BME280;18624;50.042;8.436;2022-08-30T02:41:39;100652.50;;;18.48;48.21
32109;BME280;18624;50.042;8.436;2022-08-30T02:44:07;100726.28;;;18.93;48.29
32109;BME280;18624;50.042;8.436;2022-08-30T02:46:34;100712.41;;;18.93;48.14
32109;BME280;18624;50.042;8.436;2022-08-30T02:49:01;100501.72;;;17.44;48.28
32109;BME280;18624;50.042;8.436;2022-08-30T02:51:47;100584.72;;;18.10;48.15
32109;BME280;18624;50.042;8.436;2022-08-30T02:54:14;100697.34;;;18.85;48.18
32109;BME280;18624;50.042;8.436;2022-08-30T02:56:48;100583.75;;;18.13;48.12
32109;BME280;18624;50.042;8.436;2022-08-30T02:59:16;100623.56;;;18.25;48.05
32109;BME280;18624;50.042;8.436;2022-08-30T03:01:43;100649.13;;;18.44;48.27
32109;BME280;18624;50.042;8.436;2022-08-30T03:04:09;100627.78;;;18.35;48.00
32109;BME280;18624;50.042;8.436;2022-08-30T03:06:36;100607.47;;;18.14;48.10
32109;BME280;18624;50.042;8.436;2022-08-30T03:09:02;100701.28;;;18.79;48.31
32109;BME280;18624;50.042;8.436;2022-08-30T03:11:29;100581.59;;;17.93;48.28
32109;BME280;18624;50.042;8.436;2022-08-30T03:13:55;100623.81;;;18.12;48.32
32109;BME280;18624;50.042;8.436;2022-08-30T03:16:22;100671.75;;;18.52;48.50
32109;BME280;18624;50.042;8.436;2022-08-30T03:18:49;100643.56;;;18.29;48.66
32109;BME280;18624;50.042;8.436;2022-08-30T03:21:16;100713.88;;;18.65;48.55
32109;BME280;18624;50.042;8.436;2022-08-30T03:23:43;100700.38;;;18.58;48.82
32109;BME280;18624;50.042;8.436;2022-08-30T03:26:09;100666.53;;;18.30;48.80
32109;BME280;18624;50.042;8.436;2022-08-30T03:28:38;100613.63;;;17.94;48.88
32109;BME280;18624;50.042;8.436;2022-08-30T03:31:04;100592.78;;;17.84;49.01
32109;BME280;18624;50.042;8.436;2022-08-30T03:33:31;100700.25;;;18.52;49.30
32109;BME280;18624;50.042;8.436;2022-08-30T03:35:57;100613.81;;;17.91;49.38
32109;BME280;18624;50.042;8.436;2022-08-30T03:38:24;100679.47;;;18.33;49.81
32109;BME280;18624;50.042;8.436;2022-08-30T03:40:51;100377.94;;;16.30;49.81
32109;BME280;18624;50.042;8.436;2022-08-30T03:43:17;100668.56;;;18.05;50.29
32109;BME280;18624;50.042;8.436;2022-08-30T03:45:44;100701.84;;;18.29;50.51
32109;BME280;18624;50.042;8.436;2022-08-30T03:48:10;100635.31;;;17.72;50.75
32109;BME280;18624;50.042;8.436;2022-08-30T03:50:37;100664.38;;;17.86;50.98
32109;BME280;18624;50.042;8.436;2022-08-30T03:53:03;100633.97;;;17.67;51.27
32109;BME280;18624;50.042;8.436;2022-08-30T03:55:30;100697.25;;;18.02;51.15
32109;BME280;18624;50.042;8.436;2022-08-30T03:57:56;100609.31;;;17.45;51.15
32109;BME280;18624;50.042;8.436;2022-08-30T04:00:23;100594.56;;;17.39;51.10
32109;BME280;18624;50.042;8.436;2022-08-30T04:02:51;100661.66;;;17.77;51.05
32109;BME280;18624;50.042;8.436;2022-08-30T04:05:19;100552.69;;;17.13;51.69
32109;BME280;18624;50.042;8.436;2022-08-30T04:07:45;100622.19;;;17.58;51.60
32109;BME280;18624;50.042;8.436;2022-08-30T04:10:12;100663.50;;;17.80;51.90
32109;BME280;18624;50.042;8.436;2022-08-30T04:12:38;100557.63;;;17.09;51.81
32109;BME280;18624;50.042;8.436;2022-08-30T04:15:05;100405.84;;;16.08;51.80
32109;BME280;18624;50.042;8.436;2022-08-30T04:17:33;100606.47;;;17.31;51.83
32109;BME280;18624;50.042;8.436;2022-08-30T04:19:59;100654.34;;;17.55;51.98
32109;BME280;18624;50.042;8.436;2022-08-30T04:22:26;100559.03;;;17.05;51.75
32109;BME280;18624;50.042;8.436;2022-08-30T04:24:52;100649.25;;;17.63;51.79
32109;BME280;18624;50.042;8.436;2022-08-30T04:27:19;100658.28;;;17.72;51.95
32109;BME280;18624;50.042;8.436;2022-08-30T04:29:46;100593.09;;;17.29;51.91
32109;BME280;18624;50.042;8.436;2022-08-30T04:32:13;100704.50;;;18.00;52.05
32109;BME280;18624;50.042;8.436;2022-08-30T04:34:39;100610.44;;;17.39;52.02
32109;BME280;18624;50.042;8.436;2022-08-30T04:37:06;100596.31;;;17.28;52.16
32109;BME280;18624;50.042;8.436;2022-08-30T04:39:35;100610.16;;;17.28;52.13
32109;BME280;18624;50.042;8.436;2022-08-30T04:42:01;100633.69;;;17.32;52.27
32109;BME280;18624;50.042;8.436;2022-08-30T04:44:30;100711.75;;;17.64;52.60
32109;BME280;18624;50.042;8.436;2022-08-30T04:46:57;100626.22;;;17.14;52.76
32109;BME280;18624;50.042;8.436;2022-08-30T04:49:24;100664.31;;;17.29;53.12
32109;BME280;18624;50.042;8.436;2022-08-30T04:51:50;100625.22;;;17.03;53.77
32109;BME280;18624;50.042;8.436;2022-08-30T04:54:16;100661.44;;;17.23;53.95
32109;BME280;18624;50.042;8.436;2022-08-30T04:56:43;100439.50;;;15.79;53.78
32109;BME280;18624;50.042;8.436;2022-08-30T04:59:11;100672.19;;;17.30;53.64
32109;BME280;18624;50.042;8.436;2022-08-30T05:01:38;100713.88;;;17.69;54.21
32109;BME280;18624;50.042;8.436;2022-08-30T05:04:12;100637.16;;;17.18;54.01
32109;BME280;18624;50.042;8.436;2022-08-30T05:06:39;100490.56;;;16.20;54.02
32109;BME280;18624;50.042;8.436;2022-08-30T05:09:06;100414.66;;;15.70;54.16
32109;BME280;18624;50.042;8.436;2022-08-30T05:11:32;100444.25;;;15.88;54.05
32109;BME280;18624;50.042;8.436;2022-08-30T05:13:59;100723.75;;;17.70;54.21
32109;BME280;18624;50.042;8.436;2022-08-30T05:16:25;100299.47;;;14.79;54.23
32109;BME280;18624;50.042;8.436;2022-08-30T05:18:53;100739.28;;;17.77;54.78
32109;BME280;18624;50.042;8.436;2022-08-30T05:21:22;100484.47;;;16.07;54.28
32109;BME280;18624;50.042;8.436;2022-08-30T05:23:52;100660.00;;;17.37;54.52
32109;BME280;18624;50.042;8.436;2022-08-30T05:26:23;100509.00;;;16.33;54.79
32109;BME280;18624;50.042;8.436;2022-08-30T05:28:51;100750.66;;;17.88;55.21
32109;BME280;18624;50.042;8.436;2022-08-30T05:31:23;100708.69;;;17.62;54.83
32109;BME280;18624;50.042;8.436;2022-08-30T05:33:52;100751.88;;;17.87;55.40
32109;BME280;18624;50.042;8.436;2022-08-30T05:36:21;100754.03;;;17.83;55.53
32109;BME280;18624;50.042;8.436;2022-08-30T05:38:48;100426.78;;;15.63;55.81
32109;BME280;18624;50.042;8.436;2022-08-30T05:41:18;100469.47;;;15.81;56.24
32109;BME280;18624;50.042;8.436;2022-08-30T05:43:45;100760.69;;;17.76;56.31
32109;BME280;18624;50.042;8.436;2022-08-30T05:46:13;100665.59;;;17.18;56.81
32109;BME280;18624;50.042;8.436;2022-08-30T05:48:45;100730.25;;;17.58;56.98
32109;BME280;18624;50.042;8.436;2022-08-30T05:51:14;100768.09;;;17.79;57.53
32109;BME280;18624;50.042;8.436;2022-08-30T05:53:43;100683.31;;;17.21;57.24
32109;BME280;18624;50.042;8.436;2022-08-30T05:56:11;100604.38;;;16.74;57.36
32109;BME280;18624;50.042;8.436;2022-08-30T05:58:38;100513.34;;;16.06;57.55
32109;BME280;18624;50.042;8.436;2022-08-30T06:01:05;100516.69;;;16.19;57.61
32109;BME280;18624;50.042;8.436;2022-08-30T06:03:32;100640.44;;;17.07;58.07
32109;BME280;18624;50.042;8.436;2022-08-30T06:05:59;100739.25;;;17.86;58.08
32109;BME280;18624;50.042;8.436;2022-08-30T06:08:26;100687.94;;;17.57;58.60
32109;BME280;18624;50.042;8.436;2022-08-30T06:10:52;100563.78;;;16.80;58.63
32109;BME280;18624;50.042;8.436;2022-08-30T06:13:19;100742.41;;;18.03;58.91
32109;BME280;18624;50.042;8.436;2022-08-30T06:15:45;100665.91;;;17.54;59.04
32109;BME280;18624;50.042;8.436;2022-08-30T06:18:12;100742.34;;;18.12;58.75
32109;BME280;18624;50.042;8.436;2022-08-30T06:20:43;100700.34;;;17.71;58.98
32109;BME280;18624;50.042;8.436;2022-08-30T06:23:16;100647.97;;;17.40;59.70
32109;BME280;18624;50.042;8.436;2022-08-30T06:25:43;100748.06;;;18.08;59.81
32109;BME280;18624;50.042;8.436;2022-08-30T06:28:10;100758.50;;;18.13;60.22
32109;BME280;18624;50.042;8.436;2022-08-30T06:30:40;100760.63;;;18.18;60.27
32109;BME280;18624;50.042;8.436;2022-08-30T06:33:07;100530.72;;;16.67;60.65
32109;BME280;18624;50.042;8.436;2022-08-30T06:35:34;100519.66;;;16.67;60.43
32109;BME280;18624;50.042;8.436;2022-08-30T06:38:21;100706.78;;;18.01;60.24
32109;BME280;18624;50.042;8.436;2022-08-30T06:40:47;100691.22;;;18.04;60.01
32109;BME280;18624;50.042;8.436;2022-08-30T06:43:16;100678.50;;;17.97;59.97
32109;BME280;18624;50.042;8.436;2022-08-30T06:45:42;100680.78;;;17.99;59.92
32109;BME280;18624;50.042;8.436;2022-08-30T06:48:08;100762.50;;;18.60;59.89
32109;BME280;18624;50.042;8.436;2022-08-30T06:50:35;100720.28;;;18.32;59.88
32109;BME280;18624;50.042;8.436;2022-08-30T06:53:01;100741.91;;;18.52;58.86
32109;BME280;18624;50.042;8.436;2022-08-30T06:55:31;100677.22;;;18.22;58.47
32109;BME280;18624;50.042;8.436;2022-08-30T06:58:01;100622.63;;;17.89;58.20
32109;BME280;18624;50.042;8.436;2022-08-30T07:00:28;100694.63;;;18.46;58.08
32109;BME280;18624;50.042;8.436;2022-08-30T07:02:54;100740.75;;;18.83;57.91
32109;BME280;18624;50.042;8.436;2022-08-30T07:05:21;100776.00;;;19.06;57.71
32109;BME280;18624;50.042;8.436;2022-08-30T07:07:51;100684.38;;;18.53;57.33
32109;BME280;18624;50.042;8.436;2022-08-30T07:10:21;100773.06;;;19.25;57.13
32109;BME280;18624;50.042;8.436;2022-08-30T07:12:47;100682.38;;;18.68;56.72
32109;BME280;18624;50.042;8.436;2022-08-30T07:15:14;100642.44;;;18.51;56.15
32109;BME280;18624;50.042;8.436;2022-08-30T07:17:41;100715.84;;;19.18;55.62
32109;BME280;18624;50.042;8.436;2022-08-30T07:20:26;100663.47;;;18.96;55.26
32109;BME280;18624;50.042;8.436;2022-08-30T07:23:05;100645.75;;;18.93;54.71
32109;BME280;18624;50.042;8.436;2022-08-30T07:25:31;100663.16;;;19.23;53.69
32109;BME280;18624;50.042;8.436;2022-08-30T07:27:58;100649.16;;;19.33;52.98
32109;BME280;18624;50.042;8.436;2022-08-30T07:30:24;100707.22;;;19.81;53.10
32109;BME280;18624;50.042;8.436;2022-08-30T07:32:51;100707.66;;;19.94;52.31
32109;BME280;18624;50.042;8.436;2022-08-30T07:35:17;100745.56;;;20.12;52.26
32109;BME280;18624;50.042;8.436;2022-08-30T07:37:44;100603.06;;;19.26;52.80
32109;BME280;18624;50.042;8.436;2022-08-30T07:40:10;100736.13;;;20.24;51.72
32109;BME280;18624;50.042;8.436;2022-08-30T07:42:37;100739.66;;;20.24;49.98
32109;BME280;18624;50.042;8.436;2022-08-30T07:45:07;100715.16;;;20.08;50.62
32109;BME280;18624;50.042;8.436;2022-08-30T07:47:33;100689.72;;;19.95;50.17
32109;BME280;18624;50.042;8.436;2022-08-30T07:50:00;100538.94;;;18.94;49.76
32109;BME280;18624;50.042;8.436;2022-08-30T07:52:27;100720.94;;;20.25;49.95
32109;BME280;18624;50.042;8.436;2022-08-30T07:54:57;100687.06;;;20.06;50.38
32109;BME280;18624;50.042;8.436;2022-08-30T07:57:24;100792.84;;;20.88;50.59
32109;BME280;18624;50.042;8.436;2022-08-30T07:59:51;100790.66;;;20.97;51.56
32109;BME280;18624;50.042;8.436;2022-08-30T08:02:17;100782.50;;;21.20;50.93
32109;BME280;18624;50.042;8.436;2022-08-30T08:04:44;100784.44;;;21.34;49.48
32109;BME280;18624;50.042;8.436;2022-08-30T08:07:11;100710.09;;;20.94;49.71
32109;BME280;18624;50.042;8.436;2022-08-30T08:09:38;100767.59;;;21.49;49.99
32109;BME280;18624;50.042;8.436;2022-08-30T08:12:06;100788.59;;;21.76;48.48
32109;BME280;18624;50.042;8.436;2022-08-30T08:14:33;100701.13;;;21.16;48.27
32109;BME280;18624;50.042;8.436;2022-08-30T08:17:00;100738.88;;;21.43;48.42
32109;BME280;18624;50.042;8.436;2022-08-30T08:19:27;100777.88;;;21.69;48.21
32109;BME280;18624;50.042;8.436;2022-08-30T08:21:53;100740.25;;;21.53;48.04
32109;BME280;18624;50.042;8.436;2022-08-30T08:24:42;100700.44;;;21.21;47.34
32109;BME280;18624;50.042;8.436;2022-08-30T08:27:08;100719.34;;;21.37;48.47
32109;BME280;18624;50.042;8.436;2022-08-30T08:29:34;100760.91;;;21.72;47.56
32109;BME280;18624;50.042;8.436;2022-08-30T08:32:01;100791.78;;;22.00;47.99
32109;BME280;18624;50.042;8.436;2022-08-30T08:34:27;100789.31;;;22.08;47.03
32109;BME280;18624;50.042;8.436;2022-08-30T08:36:54;100767.91;;;21.94;47.22
32109;BME280;18624;50.042;8.436;2022-08-30T08:39:20;100541.34;;;20.56;47.35
32109;BME280;18624;50.042;8.436;2022-08-30T08:45:05;100782.03;;;22.22;47.21
32109;BME280;18624;50.042;8.436;2022-08-30T08:47:40;100793.25;;;22.33;48.39
32109;BME280;18624;50.042;8.436;2022-08-30T08:50:18;100788.72;;;22.41;48.39
32109;BME280;18624;50.042;8.436;2022-08-30T08:56:14;100781.38;;;22.44;47.12
32109;BME280;18624;50.042;8.436;2022-08-30T08:58:49;100760.28;;;22.37;46.39
32109;BME280;18624;50.042;8.436;2022-08-30T09:01:19;100782.69;;;22.54;46.50
32109;BME280;18624;50.042;8.436;2022-08-30T09:03:46;100724.59;;;22.10;46.34
32109;BME280;18624;50.042;8.436;2022-08-30T09:09:34;100745.53;;;22.31;47.17
32109;BME280;18624;50.042;8.436;2022-08-30T09:12:02;100768.50;;;22.63;47.62
32109;BME280;18624;50.042;8.436;2022-08-30T09:14:33;100769.53;;;22.77;46.87
32109;BME280;18624;50.042;8.436;2022-08-30T09:17:06;100746.44;;;22.77;47.96
32109;BME280;18624;50.042;8.436;2022-08-30T09:19:45;100773.44;;;23.13;45.90
32109;BME280;18624;50.042;8.436;2022-08-30T09:22:39;100769.66;;;23.28;45.28
32109;BME280;18624;50.042;8.436;2022-08-30T09:27:39;100762.28;;;23.30;44.28
32109;BME280;18624;50.042;8.436;2022-08-30T09:33:00;100612.81;;;22.53;43.78
32109;BME280;18624;50.042;8.436;2022-08-30T09:35:41;100752.09;;;23.49;43.27
32109;BME280;18624;50.042;8.436;2022-08-30T09:38:31;100721.09;;;23.31;43.13
32109;BME280;18624;50.042;8.436;2022-08-30T09:41:00;100707.88;;;23.25;43.67
32109;BME280;18624;50.042;8.436;2022-08-30T09:43:33;100725.66;;;23.45;43.94
32109;BME280;18624;50.042;8.436;2022-08-30T09:54:15;100756.94;;;23.83;43.54
32109;BME280;18624;50.042;8.436;2022-08-30T09:56:57;100741.88;;;24.03;42.96
32109;BME280;18624;50.042;8.436;2022-08-30T09:59:52;100731.34;;;24.25;43.55
32109;BME280;18624;50.042;8.436;2022-08-30T10:02:47;100731.03;;;24.35;42.65
32109;BME280;18624;50.042;8.436;2022-08-30T10:05:24;100734.38;;;24.39;41.10
32109;BME280;18624;50.042;8.436;2022-08-30T10:08:40;100728.47;;;24.48;40.28
32109;BME280;18624;50.042;8.436;2022-08-30T10:11:04;100682.44;;;24.26;40.72
32109;BME280;18624;50.042;8.436;2022-08-30T10:13:41;100713.16;;;24.49;41.25
32109;BME280;18624;50.042;8.436;2022-08-30T10:21:40;100710.91;;;24.47;39.53
32109;BME280;18624;50.042;8.436;2022-08-30T10:24:12;100684.72;;;24.34;39.34
32109;BME280;18624;50.042;8.436;2022-08-30T10:26:51;100669.94;;;24.33;40.08
32109;BME280;18624;50.042;8.436;2022-08-30T10:29:24;100703.19;;;24.59;39.36
32109;BME280;18624;50.042;8.436;2022-08-30T10:37:19;100705.38;;;24.78;39.08
32109;BME280;18624;50.042;8.436;2022-08-30T10:39:54;100702.53;;;24.83;38.14
32109;BME280;18624;50.042;8.436;2022-08-30T10:42:27;100697.41;;;24.87;37.55
32109;BME280;18624;50.042;8.436;2022-08-30T10:45:09;100682.94;;;24.78;38.02
32109;BME280;18624;50.042;8.436;2022-08-30T10:47:43;100685.69;;;24.83;37.84
32109;BME280;18624;50.042;8.436;2022-08-30T10:50:27;100691.78;;;24.87;37.36
32109;BME280;18624;50.042;8.436;2022-08-30T10:53:06;100697.41;;;24.87;36.44
32109;BME280;18624;50.042;8.436;2022-08-30T10:55:40;100686.72;;;24.86;37.31
32109;BME280;18624;50.042;8.436;2022-08-30T10:58:16;100625.06;;;24.50;37.16
32109;BME280;18624;50.042;8.436;2022-08-30T11:00:56;100690.72;;;24.96;37.15
32109;BME280;18624;50.042;8.436;2022-08-30T11:03:42;100687.91;;;24.96;37.21
32109;BME280;18624;50.042;8.436;2022-08-30T11:06:24;100682.28;;;24.96;37.81
32109;BME280;18624;50.042;8.436;2022-08-30T11:11:40;100653.56;;;24.84;36.85
32109;BME280;18624;50.042;8.436;2022-08-30T11:14:16;100644.88;;;24.88;36.27
32109;BME280;18624;50.042;8.436;2022-08-30T11:16:47;100569.63;;;24.32;36.30
32109;BME280;18624;50.042;8.436;2022-08-30T11:19:27;100636.63;;;25.01;35.64
32109;BME280;18624;50.042;8.436;2022-08-30T11:22:21;100646.97;;;25.17;35.89
32109;BME280;18624;50.042;8.436;2022-08-30T11:25:06;100676.31;;;25.41;35.76
32109;BME280;18624;50.042;8.436;2022-08-30T11:27:44;100586.31;;;24.84;35.77
32109;BME280;18624;50.042;8.436;2022-08-30T11:49:00;100564.53;;;24.96;34.98
32109;BME280;18624;50.042;8.436;2022-08-30T11:57:52;100644.28;;;25.80;34.29
32109;BME280;18624;50.042;8.436;2022-08-30T12:00:33;100652.66;;;25.85;34.40
32109;BME280;18624;50.042;8.436;2022-08-30T12:03:05;100643.69;;;25.87;34.44
32109;BME280;18624;50.042;8.436;2022-08-30T12:11:00;100643.16;;;25.88;34.52
32109;BME280;18624;50.042;8.436;2022-08-30T12:16:02;100648.75;;;25.88;33.59
32109;BME280;18624;50.042;8.436;2022-08-30T12:18:48;100566.91;;;25.41;33.70
32109;BME280;18624;50.042;8.436;2022-08-30T12:26:43;100629.28;;;25.96;34.29
32109;BME280;18624;50.042;8.436;2022-08-30T12:29:25;100581.03;;;25.73;33.77
32109;BME280;18624;50.042;8.436;2022-08-30T12:31:58;100619.63;;;26.10;33.21
32109;BME280;18624;50.042;8.436;2022-08-30T12:37:06;100609.22;;;26.05;33.11
32109;BME280;18624;50.042;8.436;2022-08-30T12:39:42;100611.44;;;26.12;33.49
32109;BME280;18624;50.042;8.436;2022-08-30T12:42:18;100604.63;;;26.08;33.49
32109;BME280;18624;50.042;8.436;2022-08-30T12:44:46;100620.47;;;26.24;33.01
32109;BME280;18624;50.042;8.436;2022-08-30T12:47:20;100593.44;;;26.02;33.38
32109;BME280;18624;50.042;8.436;2022-08-30T12:49:51;100556.53;;;25.73;34.10
32109;BME280;18624;50.042;8.436;2022-08-30T12:52:35;100598.66;;;26.11;33.42
32109;BME280;18624;50.042;8.436;2022-08-30T12:55:18;100608.72;;;26.25;33.72
32109;BME280;18624;50.042;8.436;2022-08-30T13:00:38;100598.75;;;26.24;33.22
32109;BME280;18624;50.042;8.436;2022-08-30T13:03:29;100594.31;;;26.29;33.61
32109;BME280;18624;50.042;8.436;2022-08-30T13:05:58;100468.84;;;25.48;33.24
32109;BME280;18624;50.042;8.436;2022-08-30T13:08:47;100592.28;;;26.30;33.04
32109;BME280;18624;50.042;8.436;2022-08-30T13:13:52;100571.09;;;26.29;32.39
32109;BME280;18624;50.042;8.436;2022-08-30T13:16:25;100591.13;;;26.38;32.47
32109;BME280;18624;50.042;8.436;2022-08-30T13:19:33;100577.06;;;26.38;32.36
32109;BME280;18624;50.042;8.436;2022-08-30T13:22:00;100487.75;;;25.86;32.79
32109;BME280;18624;50.042;8.436;2022-08-30T13:24:28;100479.94;;;25.79;33.42
32109;BME280;18624;50.042;8.436;2022-08-30T13:26:58;100580.88;;;26.41;32.83
32109;BME280;18624;50.042;8.436;2022-08-30T13:29:28;100496.44;;;26.01;32.53
32109;BME280;18624;50.042;8.436;2022-08-30T13:31:55;100525.25;;;26.20;32.56
32109;BME280;18624;50.042;8.436;2022-08-30T13:34:22;100554.75;;;26.46;32.45
32109;BME280;18624;50.042;8.436;2022-08-30T13:36:52;100477.09;;;25.97;32.56
32109;BME280;18624;50.042;8.436;2022-08-30T13:39:19;100434.72;;;25.63;32.82
32109;BME280;18624;50.042;8.436;2022-08-30T13:41:47;100495.59;;;26.06;32.47
32109;BME280;18624;50.042;8.436;2022-08-30T13:44:14;100555.75;;;26.48;32.25
32109;BME280;18624;50.042;8.436;2022-08-30T13:46:44;100502.31;;;26.03;32.38
32109;BME280;18624;50.042;8.436;2022-08-30T13:49:26;100422.13;;;25.51;33.99
32109;BME280;18624;50.042;8.436;2022-08-30T13:52:11;100554.94;;;26.35;33.22
32109;BME280;18624;50.042;8.436;2022-08-30T13:54:52;100450.16;;;25.70;32.84
32109;BME280;18624;50.042;8.436;2022-08-30T13:57:21;100512.22;;;26.36;32.25
32109;BME280;18624;50.042;8.436;2022-08-30T14:00:13;100554.84;;;26.72;31.60
32109;BME280;18624;50.042;8.436;2022-08-30T14:02:43;100475.72;;;26.36;31.66
32109;BME280;18624;50.042;8.436;2022-08-30T14:05:17;100527.78;;;26.69;31.85
32109;BME280;18624;50.042;8.436;2022-08-30T14:08:04;100539.47;;;26.73;32.58
32109;BME280;18624;50.042;8.436;2022-08-30T14:10:32;100534.94;;;26.70;32.61
32109;BME280;18624;50.042;8.436;2022-08-30T14:13:03;100502.25;;;26.54;32.01
32109;BME280;18624;50.042;8.436;2022-08-30T14:15:36;100408.84;;;25.89;32.23
32109;BME280;18624;50.042;8.436;2022-08-30T14:18:05;100542.72;;;26.77;32.35
32109;BME280;18624;50.042;8.436;2022-08-30T14:20:32;100479.81;;;26.35;32.49
32109;BME280;18624;50.042;8.436;2022-08-30T14:23:04;100533.84;;;26.73;32.88
32109;BME280;18624;50.042;8.436;2022-08-30T14:25:36;100479.16;;;26.42;32.28
32109;BME280;18624;50.042;8.436;2022-08-30T14:28:02;100388.72;;;25.85;32.10
32109;BME280;18624;50.042;8.436;2022-08-30T14:30:29;100499.91;;;26.71;32.07
32109;BME280;18624;50.042;8.436;2022-08-30T14:32:58;100498.94;;;26.82;32.30